sensor_id;sensor_type;location;lat;lon;timestamp;pressure;altitude;pressure_sealevel;temperature;humidity
65756;BME280;69208;47.502;18.940;2023-06-14T00:00:58;97868.34;;;13.80;69.99
65756;BME280;69208;47.502;18.940;2023-06-14T00:02:01;97869.28;;;13.75;70.72
65756;BME280;69208;47.502;18.940;2023-06-14T00:03:04;97864.66;;;13.72;70.93
65756;BME280;69208;47.502;18.940;2023-06-14T00:04:07;97865.47;;;13.73;71.24
65756;BME280;69208;47.502;18.940;2023-06-14T00:05:11;97862.03;;;13.72;71.34
65756;BME280;69208;47.502;18.940;2023-06-14T00:06:17;97861.91;;;13.69;71.46
65756;BME280;69208;47.502;18.940;2023-06-14T00:07:34;97863.00;;;13.68;71.61
65756;BME280;69208;47.502;18.940;2023-06-14T00:08:37;97865.00;;;13.71;71.71
65756;BME280;69208;47.502;18.940;2023-06-14T00:09:39;97865.34;;;13.60;72.32
65756;BME280;69208;47.502;18.940;2023-06-14T00:10:42;97862.72;;;13.60;72.32
65756;BME280;69208;47.502;18.940;2023-06-14T00:11:45;97861.97;;;13.60;72.73
65756;BME280;69208;47.502;18.940;2023-06-14T00:12:48;97861.38;;;13.54;73.04
65756;BME280;69208;47.502;18.940;2023-06-14T00:13:51;97862.59;;;13.57;72.99
65756;BME280;69208;47.502;18.940;2023-06-14T00:14:54;97857.66;;;13.55;73.30
65756;BME280;69208;47.502;18.940;2023-06-14T00:15:56;97864.34;;;13.53;73.52
65756;BME280;69208;47.502;18.940;2023-06-14T00:16:59;97860.78;;;13.49;74.01
65756;BME280;69208;47.502;18.940;2023-06-14T00:18:03;97857.25;;;13.45;74.28
65756;BME280;69208;47.502;18.940;2023-06-14T00:19:06;97853.81;;;13.53;74.22
65756;BME280;69208;47.502;18.940;2023-06-14T00:20:09;97862.22;;;13.46;74.53
65756;BME280;69208;47.502;18.940;2023-06-14T00:21:13;97854.03;;;13.39;74.96
65756;BME280;69208;47.502;18.940;2023-06-14T00:22:16;97854.16;;;13.42;74.74
65756;BME280;69208;47.502;18.940;2023-06-14T00:23:19;97858.00;;;13.45;75.06
65756;BME280;69208;47.502;18.940;2023-06-14T00:24:22;97862.84;;;13.43;75.34
65756;BME280;69208;47.502;18.940;2023-06-14T00:25:25;97863.28;;;13.45;75.54
65756;BME280;69208;47.502;18.940;2023-06-14T00:26:31;97867.66;;;13.41;76.03
65756;BME280;69208;47.502;18.940;2023-06-14T00:27:33;97867.00;;;13.44;76.09
65756;BME280;69208;47.502;18.940;2023-06-14T00:28:36;97871.69;;;13.38;76.62
65756;BME280;69208;47.502;18.940;2023-06-14T00:29:41;97866.13;;;13.40;76.85
65756;BME280;69208;47.502;18.940;2023-06-14T00:30:44;97864.41;;;13.35;77.26
65756;BME280;69208;47.502;18.940;2023-06-14T00:31:48;97862.56;;;13.36;77.34
65756;BME280;69208;47.502;18.940;2023-06-14T00:32:52;97867.34;;;13.34;77.63
65756;BME280;69208;47.502;18.940;2023-06-14T00:33:55;97869.84;;;13.30;77.91
65756;BME280;69208;47.502;18.940;2023-06-14T00:34:58;97867.22;;;13.21;78.34
65756;BME280;69208;47.502;18.940;2023-06-14T00:36:00;97863.19;;;13.24;78.48
65756;BME280;69208;47.502;18.940;2023-06-14T00:37:03;97862.72;;;13.22;78.60
65756;BME280;69208;47.502;18.940;2023-06-14T00:38:06;97866.91;;;13.23;78.39
65756;BME280;69208;47.502;18.940;2023-06-14T00:39:09;97872.03;;;13.19;78.39
65756;BME280;69208;47.502;18.940;2023-06-14T00:40:12;97871.41;;;13.23;78.41
65756;BME280;69208;47.502;18.940;2023-06-14T00:41:15;97876.22;;;13.20;78.72
65756;BME280;69208;47.502;18.940;2023-06-14T00:42:28;97872.47;;;13.21;78.85
65756;BME280;69208;47.502;18.940;2023-06-14T00:43:30;97868.31;;;13.20;78.71
65756;BME280;69208;47.502;18.940;2023-06-14T00:44:33;97873.44;;;13.17;78.99
65756;BME280;69208;47.502;18.940;2023-06-14T00:45:36;97872.19;;;13.23;78.84
65756;BME280;69208;47.502;18.940;2023-06-14T00:46:39;97875.88;;;13.22;79.12
65756;BME280;69208;47.502;18.940;2023-06-14T00:47:43;97874.03;;;13.23;79.20
65756;BME280;69208;47.502;18.940;2023-06-14T00:48:48;97875.56;;;13.24;79.15
65756;BME280;69208;47.502;18.940;2023-06-14T00:49:53;97875.56;;;13.24;79.09
65756;BME280;69208;47.502;18.940;2023-06-14T00:50:56;97877.44;;;13.23;79.20
65756;BME280;69208;47.502;18.940;2023-06-14T00:51:59;97877.44;;;13.23;79.10
65756;BME280;69208;47.502;18.940;2023-06-14T00:53:02;97875.31;;;13.25;79.39
65756;BME280;69208;47.502;18.940;2023-06-14T00:54:05;97874.47;;;13.25;79.54
65756;BME280;69208;47.502;18.940;2023-06-14T00:55:08;97869.84;;;13.30;79.31
65756;BME280;69208;47.502;18.940;2023-06-14T00:56:12;97877.13;;;13.25;79.58
65756;BME280;69208;47.502;18.940;2023-06-14T00:57:16;97874.81;;;13.23;79.68
65756;BME280;69208;47.502;18.940;2023-06-14T00:58:19;97881.63;;;13.15;80.12
65756;BME280;69208;47.502;18.940;2023-06-14T00:59:24;97878.06;;;13.20;80.14
65756;BME280;69208;47.502;18.940;2023-06-14T01:00:27;97876.06;;;13.26;79.78
65756;BME280;69208;47.502;18.940;2023-06-14T01:01:31;97874.97;;;13.27;79.78
65756;BME280;69208;47.502;18.940;2023-06-14T01:02:37;97866.91;;;13.32;79.57
65756;BME280;69208;47.502;18.940;2023-06-14T01:03:40;97870.31;;;13.32;79.52
65756;BME280;69208;47.502;18.940;2023-06-14T01:04:46;97865.06;;;13.32;79.40
65756;BME280;69208;47.502;18.940;2023-06-14T01:05:59;97866.44;;;13.30;79.31
65756;BME280;69208;47.502;18.940;2023-06-14T01:08:50;97864.19;;;13.11;80.88
65756;BME280;69208;47.502;18.940;2023-06-14T01:11:30;97864.81;;;13.08;81.06
65756;BME280;69208;47.502;18.940;2023-06-14T01:13:43;97864.66;;;13.04;81.80
65756;BME280;69208;47.502;18.940;2023-06-14T01:14:48;97867.63;;;13.03;81.88
65756;BME280;69208;47.502;18.940;2023-06-14T01:15:55;97862.19;;;13.08;81.61
65756;BME280;69208;47.502;18.940;2023-06-14T01:16:58;97859.63;;;12.90;82.14
65756;BME280;69208;47.502;18.940;2023-06-14T01:18:04;97863.91;;;12.95;81.93
65756;BME280;69208;47.502;18.940;2023-06-14T01:19:10;97857.47;;;12.84;82.26
65756;BME280;69208;47.502;18.940;2023-06-14T01:20:16;97858.41;;;12.79;82.53
65756;BME280;69208;47.502;18.940;2023-06-14T01:21:21;97865.69;;;12.65;83.25
65756;BME280;69208;47.502;18.940;2023-06-14T01:22:26;97863.38;;;12.72;82.96
65756;BME280;69208;47.502;18.940;2023-06-14T01:23:29;97856.44;;;12.59;83.39
65756;BME280;69208;47.502;18.940;2023-06-14T01:24:34;97863.53;;;12.58;83.57
65756;BME280;69208;47.502;18.940;2023-06-14T01:25:37;97857.97;;;12.60;83.51
65756;BME280;69208;47.502;18.940;2023-06-14T01:26:41;97861.66;;;12.67;83.11
65756;BME280;69208;47.502;18.940;2023-06-14T01:27:53;97867.22;;;12.66;83.14
65756;BME280;69208;47.502;18.940;2023-06-14T01:28:57;97863.69;;;12.53;83.94
65756;BME280;69208;47.502;18.940;2023-06-14T01:30:01;97861.69;;;12.50;83.77
65756;BME280;69208;47.502;18.940;2023-06-14T01:31:06;97863.84;;;12.48;83.86
65756;BME280;69208;47.502;18.940;2023-06-14T01:32:10;97867.56;;;12.38;84.18
65756;BME280;69208;47.502;18.940;2023-06-14T01:33:14;97865.72;;;12.39;84.49
65756;BME280;69208;47.502;18.940;2023-06-14T01:34:18;97869.28;;;12.43;84.27
65756;BME280;69208;47.502;18.940;2023-06-14T01:35:21;97859.56;;;12.35;84.21
65756;BME280;69208;47.502;18.940;2023-06-14T01:36:26;97867.28;;;12.40;84.12
65756;BME280;69208;47.502;18.940;2023-06-14T01:37:30;97873.59;;;12.39;84.33
65756;BME280;69208;47.502;18.940;2023-06-14T01:38:33;97864.47;;;12.36;84.32
65756;BME280;69208;47.502;18.940;2023-06-14T01:39:37;97864.66;;;12.05;85.63
65756;BME280;69208;47.502;18.940;2023-06-14T01:40:42;97868.66;;;11.94;86.10
65756;BME280;69208;47.502;18.940;2023-06-14T01:41:47;97870.50;;;11.93;86.44
65756;BME280;69208;47.502;18.940;2023-06-14T01:42:52;97872.50;;;11.88;86.43
65756;BME280;69208;47.502;18.940;2023-06-14T01:43:55;97873.22;;;11.79;87.13
65756;BME280;69208;47.502;18.940;2023-06-14T01:45:00;97869.53;;;11.72;88.21
65756;BME280;69208;47.502;18.940;2023-06-14T01:46:04;97866.72;;;11.77;88.24
65756;BME280;69208;47.502;18.940;2023-06-14T01:47:07;97867.25;;;11.88;87.57
65756;BME280;69208;47.502;18.940;2023-06-14T01:48:11;97865.56;;;11.92;87.30
65756;BME280;69208;47.502;18.940;2023-06-14T01:49:14;97875.75;;;11.93;86.81
65756;BME280;69208;47.502;18.940;2023-06-14T01:50:19;97869.19;;;11.73;88.01
65756;BME280;69208;47.502;18.940;2023-06-14T01:51:22;97869.00;;;11.52;89.88
65756;BME280;69208;47.502;18.940;2023-06-14T01:52:25;97869.28;;;11.42;89.80
65756;BME280;69208;47.502;18.940;2023-06-14T01:53:28;97878.19;;;11.32;90.27
65756;BME280;69208;47.502;18.940;2023-06-14T01:54:30;97878.69;;;11.43;90.16
65756;BME280;69208;47.502;18.940;2023-06-14T01:55:34;97874.72;;;11.54;89.92
65756;BME280;69208;47.502;18.940;2023-06-14T01:56:39;97871.38;;;11.63;89.54
65756;BME280;69208;47.502;18.940;2023-06-14T01:57:42;97870.12;;;11.60;89.76
65756;BME280;69208;47.502;18.940;2023-06-14T01:58:45;97882.47;;;11.59;90.38
65756;BME280;69208;47.502;18.940;2023-06-14T01:59:48;97881.19;;;11.48;90.21
65756;BME280;69208;47.502;18.940;2023-06-14T02:00:52;97870.19;;;11.37;90.97
65756;BME280;69208;47.502;18.940;2023-06-14T02:01:57;97878.09;;;11.46;90.45
65756;BME280;69208;47.502;18.940;2023-06-14T02:03:00;97884.84;;;11.38;91.31
65756;BME280;69208;47.502;18.940;2023-06-14T02:04:04;97871.31;;;11.45;90.77
65756;BME280;69208;47.502;18.940;2023-06-14T02:05:07;97875.03;;;11.53;90.45
65756;BME280;69208;47.502;18.940;2023-06-14T02:06:11;97879.03;;;11.59;90.06
65756;BME280;69208;47.502;18.940;2023-06-14T02:07:14;97880.00;;;11.63;89.94
65756;BME280;69208;47.502;18.940;2023-06-14T02:08:17;97876.00;;;11.66;89.81
65756;BME280;69208;47.502;18.940;2023-06-14T02:09:20;97877.66;;;11.53;90.75
65756;BME280;69208;47.502;18.940;2023-06-14T02:10:23;97881.97;;;11.49;90.89
65756;BME280;69208;47.502;18.940;2023-06-14T02:11:26;97881.63;;;11.50;90.38
65756;BME280;69208;47.502;18.940;2023-06-14T02:12:29;97883.34;;;11.46;90.84
65756;BME280;69208;47.502;18.940;2023-06-14T02:13:32;97889.50;;;11.50;90.98
65756;BME280;69208;47.502;18.940;2023-06-14T02:14:35;97881.47;;;11.47;91.06
65756;BME280;69208;47.502;18.940;2023-06-14T02:15:37;97883.94;;;11.43;91.58
65756;BME280;69208;47.502;18.940;2023-06-14T02:16:40;97891.78;;;11.34;91.59
65756;BME280;69208;47.502;18.940;2023-06-14T02:17:51;97888.56;;;11.37;91.55
65756;BME280;69208;47.502;18.940;2023-06-14T02:18:54;97889.78;;;11.40;91.22
65756;BME280;69208;47.502;18.940;2023-06-14T02:19:57;97886.84;;;11.42;91.29
65756;BME280;69208;47.502;18.940;2023-06-14T02:21:00;97894.25;;;11.31;91.75
65756;BME280;69208;47.502;18.940;2023-06-14T02:22:03;97886.25;;;11.36;91.69
65756;BME280;69208;47.502;18.940;2023-06-14T02:23:06;97888.84;;;11.27;91.96
65756;BME280;69208;47.502;18.940;2023-06-14T02:24:11;97888.56;;;11.37;91.53
65756;BME280;69208;47.502;18.940;2023-06-14T02:25:13;97889.47;;;11.42;91.45
65756;BME280;69208;47.502;18.940;2023-06-14T02:26:16;97882.84;;;11.44;91.16
65756;BME280;69208;47.502;18.940;2023-06-14T02:27:19;97878.69;;;11.43;91.14
65756;BME280;69208;47.502;18.940;2023-06-14T02:28:22;97884.59;;;11.18;92.61
65756;BME280;69208;47.502;18.940;2023-06-14T02:29:24;97883.28;;;11.29;92.26
65756;BME280;69208;47.502;18.940;2023-06-14T02:30:28;97888.25;;;11.39;91.65
65756;BME280;69208;47.502;18.940;2023-06-14T02:31:32;97888.25;;;11.39;91.44
65756;BME280;69208;47.502;18.940;2023-06-14T02:32:35;97884.47;;;11.23;92.49
65756;BME280;69208;47.502;18.940;2023-06-14T02:33:38;97883.41;;;11.24;92.88
65756;BME280;69208;47.502;18.940;2023-06-14T02:34:41;97878.78;;;11.29;92.65
65756;BME280;69208;47.502;18.940;2023-06-14T02:35:44;97884.69;;;11.35;92.42
65756;BME280;69208;47.502;18.940;2023-06-14T02:36:47;97879.75;;;11.33;92.22
65756;BME280;69208;47.502;18.940;2023-06-14T02:37:50;97882.69;;;11.41;94.53
65756;BME280;69208;47.502;18.940;2023-06-14T02:38:53;97883.19;;;11.43;94.74
65756;BME280;69208;47.502;18.940;2023-06-14T02:39:56;97885.19;;;11.46;94.62
65756;BME280;69208;47.502;18.940;2023-06-14T02:40:59;97880.22;;;11.44;94.62
65756;BME280;69208;47.502;18.940;2023-06-14T02:42:04;97880.88;;;11.50;95.68
65756;BME280;69208;47.502;18.940;2023-06-14T02:43:08;97887.41;;;11.61;95.49
65756;BME280;69208;47.502;18.940;2023-06-14T02:44:13;97884.16;;;11.64;95.57
65756;BME280;69208;47.502;18.940;2023-06-14T02:45:17;97885.56;;;11.70;95.43
65756;BME280;69208;47.502;18.940;2023-06-14T02:46:20;97882.94;;;11.70;95.62
65756;BME280;69208;47.502;18.940;2023-06-14T02:47:22;97882.00;;;11.66;96.26
65756;BME280;69208;47.502;18.940;2023-06-14T02:48:25;97874.13;;;11.66;96.38
65756;BME280;69208;47.502;18.940;2023-06-14T02:49:28;97884.66;;;11.75;96.12
65756;BME280;69208;47.502;18.940;2023-06-14T02:50:32;97885.59;;;11.79;96.16
65756;BME280;69208;47.502;18.940;2023-06-14T02:51:35;97877.75;;;11.88;95.47
65756;BME280;69208;47.502;18.940;2023-06-14T02:52:37;97880.19;;;11.84;95.81
65756;BME280;69208;47.502;18.940;2023-06-14T02:53:40;97873.75;;;11.90;95.16
65756;BME280;69208;47.502;18.940;2023-06-14T02:54:43;97870.19;;;11.86;95.49
65756;BME280;69208;47.502;18.940;2023-06-14T02:55:46;97875.28;;;11.91;95.52
65756;BME280;69208;47.502;18.940;2023-06-14T02:56:49;97876.38;;;11.99;95.31
65756;BME280;69208;47.502;18.940;2023-06-14T02:57:52;97876.53;;;12.02;95.42
65756;BME280;69208;47.502;18.940;2023-06-14T02:58:56;97866.34;;;12.10;95.10
65756;BME280;69208;47.502;18.940;2023-06-14T02:59:59;97876.06;;;12.09;95.05
65756;BME280;69208;47.502;18.940;2023-06-14T03:01:04;97880.25;;;12.10;95.15
65756;BME280;69208;47.502;18.940;2023-06-14T03:02:08;97871.28;;;12.11;95.01
65756;BME280;69208;47.502;18.940;2023-06-14T03:03:11;97875.16;;;12.14;95.04
65756;BME280;69208;47.502;18.940;2023-06-14T03:04:19;97879.94;;;12.12;95.34
65756;BME280;69208;47.502;18.940;2023-06-14T03:05:22;97877.94;;;12.17;95.09
65756;BME280;69208;47.502;18.940;2023-06-14T03:06:26;97886.44;;;12.23;94.79
65756;BME280;69208;47.502;18.940;2023-06-14T03:07:32;97875.16;;;12.22;94.79
65756;BME280;69208;47.502;18.940;2023-06-14T03:08:35;97876.69;;;12.15;95.30
65756;BME280;69208;47.502;18.940;2023-06-14T03:09:41;97880.41;;;12.14;95.70
65756;BME280;69208;47.502;18.940;2023-06-14T03:10:45;97880.72;;;12.21;95.16
65756;BME280;69208;47.502;18.940;2023-06-14T03:11:48;97880.72;;;12.21;95.28
65756;BME280;69208;47.502;18.940;2023-06-14T03:12:50;97873.31;;;12.23;95.18
65756;BME280;69208;47.502;18.940;2023-06-14T03:13:54;97874.69;;;12.29;95.04
65756;BME280;69208;47.502;18.940;2023-06-14T03:14:57;97874.53;;;12.17;95.85
65756;BME280;69208;47.502;18.940;2023-06-14T03:16:04;97879.47;;;12.18;95.87
65756;BME280;69208;47.502;18.940;2023-06-14T03:17:07;97879.78;;;12.17;96.08
65756;BME280;69208;47.502;18.940;2023-06-14T03:18:11;97877.16;;;12.25;95.71
65756;BME280;69208;47.502;18.940;2023-06-14T03:19:14;97880.41;;;12.22;95.85
65756;BME280;69208;47.502;18.940;2023-06-14T03:20:17;97876.06;;;12.26;95.64
65756;BME280;69208;47.502;18.940;2023-06-14T03:21:20;97881.66;;;12.25;95.73
65756;BME280;69208;47.502;18.940;2023-06-14T03:22:23;97872.06;;;12.29;95.53
65756;BME280;69208;47.502;18.940;2023-06-14T03:23:27;97882.28;;;12.31;95.55
65756;BME280;69208;47.502;18.940;2023-06-14T03:24:30;97888.44;;;12.35;94.99
65756;BME280;69208;47.502;18.940;2023-06-14T03:25:39;97879.47;;;12.36;95.10
65756;BME280;69208;47.502;18.940;2023-06-14T03:26:45;97875.47;;;12.38;94.90
65756;BME280;69208;47.502;18.940;2023-06-14T03:27:47;97877.47;;;12.41;94.52
65756;BME280;69208;47.502;18.940;2023-06-14T03:28:50;97877.94;;;12.35;94.88
65756;BME280;69208;47.502;18.940;2023-06-14T03:29:53;97880.84;;;12.42;94.64
65756;BME280;69208;47.502;18.940;2023-06-14T03:30:55;97886.91;;;12.42;94.43
65756;BME280;69208;47.502;18.940;2023-06-14T03:32:00;97893.69;;;12.43;94.30
65756;BME280;69208;47.502;18.940;2023-06-14T03:33:04;97877.47;;;12.50;93.94
65756;BME280;69208;47.502;18.940;2023-06-14T03:34:07;97880.84;;;12.50;93.87
65756;BME280;69208;47.502;18.940;2023-06-14T03:35:10;97891.38;;;12.50;93.74
65756;BME280;69208;47.502;18.940;2023-06-14T03:36:19;97894.47;;;12.44;94.12
65756;BME280;69208;47.502;18.940;2023-06-14T03:37:22;97889.81;;;12.49;93.96
65756;BME280;69208;47.502;18.940;2023-06-14T03:38:25;97895.84;;;12.50;93.76
65756;BME280;69208;47.502;18.940;2023-06-14T03:39:28;97898.19;;;12.51;93.57
65756;BME280;69208;47.502;18.940;2023-06-14T03:40:30;97891.38;;;12.50;93.68
65756;BME280;69208;47.502;18.940;2023-06-14T03:41:33;97898.00;;;12.57;93.27
65756;BME280;69208;47.502;18.940;2023-06-14T03:42:36;97897.25;;;12.47;93.70
65756;BME280;69208;47.502;18.940;2023-06-14T03:43:39;97896.78;;;12.45;94.31
65756;BME280;69208;47.502;18.940;2023-06-14T03:44:41;97894.94;;;12.46;94.24
65756;BME280;69208;47.502;18.940;2023-06-14T03:45:44;97893.53;;;12.48;93.69
65756;BME280;69208;47.502;18.940;2023-06-14T03:46:47;97899.25;;;12.42;94.18
65756;BME280;69208;47.502;18.940;2023-06-14T03:47:50;97899.88;;;12.39;94.69
65756;BME280;69208;47.502;18.940;2023-06-14T03:48:53;97902.34;;;12.35;94.82
65756;BME280;69208;47.502;18.940;2023-06-14T03:49:56;97902.34;;;12.35;94.82
65756;BME280;69208;47.502;18.940;2023-06-14T03:50:58;97900.03;;;12.34;94.80
65756;BME280;69208;47.502;18.940;2023-06-14T03:52:03;97902.66;;;12.34;94.85
65756;BME280;69208;47.502;18.940;2023-06-14T03:53:06;97905.75;;;12.36;95.04
65756;BME280;69208;47.502;18.940;2023-06-14T03:54:09;97896.94;;;12.40;94.69
65756;BME280;69208;47.502;18.940;2023-06-14T03:55:32;97899.72;;;12.44;94.31
65756;BME280;69208;47.502;18.940;2023-06-14T03:56:38;97898.63;;;12.53;93.60
65756;BME280;69208;47.502;18.940;2023-06-14T03:57:41;97890.13;;;12.57;93.35
65756;BME280;69208;47.502;18.940;2023-06-14T03:58:43;97895.84;;;12.50;93.84
65756;BME280;69208;47.502;18.940;2023-06-14T03:59:46;97902.19;;;12.40;94.55
65756;BME280;69208;47.502;18.940;2023-06-14T04:00:49;97898.19;;;12.51;94.20
65756;BME280;69208;47.502;18.940;2023-06-14T04:01:53;97903.88;;;12.53;94.04
65756;BME280;69208;47.502;18.940;2023-06-14T04:02:56;97902.19;;;12.58;93.92
65756;BME280;69208;47.502;18.940;2023-06-14T04:03:59;97901.25;;;12.62;93.97
65756;BME280;69208;47.502;18.940;2023-06-14T04:05:02;97906.69;;;12.57;94.34
65756;BME280;69208;47.502;18.940;2023-06-14T04:06:06;97906.34;;;12.59;94.33
65756;BME280;69208;47.502;18.940;2023-06-14T04:07:13;97910.69;;;12.63;94.19
65756;BME280;69208;47.502;18.940;2023-06-14T04:08:16;97900.47;;;12.62;94.18
65756;BME280;69208;47.502;18.940;2023-06-14T04:09:23;97914.84;;;12.64;93.84
65756;BME280;69208;47.502;18.940;2023-06-14T04:10:27;97917.78;;;12.63;93.87
65756;BME280;69208;47.502;18.940;2023-06-14T04:11:30;97916.72;;;12.64;94.17
65756;BME280;69208;47.502;18.940;2023-06-14T04:12:33;97911.59;;;12.59;94.45
65756;BME280;69208;47.502;18.940;2023-06-14T04:13:36;97926.13;;;12.65;94.23
65756;BME280;69208;47.502;18.940;2023-06-14T04:14:41;97917.97;;;12.66;94.14
65756;BME280;69208;47.502;18.940;2023-06-14T04:15:44;97916.72;;;12.72;94.03
65756;BME280;69208;47.502;18.940;2023-06-14T04:16:49;97921.16;;;12.81;93.70
65756;BME280;69208;47.502;18.940;2023-06-14T04:17:52;97925.97;;;12.79;93.59
65756;BME280;69208;47.502;18.940;2023-06-14T04:18:55;97919.94;;;12.78;93.28
65756;BME280;69208;47.502;18.940;2023-06-14T04:19:59;97931.53;;;12.77;93.61
65756;BME280;69208;47.502;18.940;2023-06-14T04:21:02;97927.66;;;12.74;93.62
65756;BME280;69208;47.502;18.940;2023-06-14T04:22:05;97926.41;;;12.81;93.67
65756;BME280;69208;47.502;18.940;2023-06-14T04:23:15;97928.13;;;12.68;94.14
65756;BME280;69208;47.502;18.940;2023-06-14T04:24:20;97923.97;;;12.75;93.99
65756;BME280;69208;47.502;18.940;2023-06-14T04:25:23;97923.34;;;12.79;93.90
65756;BME280;69208;47.502;18.940;2023-06-14T04:26:29;97921.78;;;12.78;94.18
65756;BME280;69208;47.502;18.940;2023-06-14T04:27:32;97926.59;;;12.75;94.57
65756;BME280;69208;47.502;18.940;2023-06-14T04:28:38;97921.75;;;12.95;93.42
65756;BME280;69208;47.502;18.940;2023-06-14T04:29:43;97926.38;;;12.98;93.17
65756;BME280;69208;47.502;18.940;2023-06-14T04:30:47;97924.69;;;13.11;92.57
65756;BME280;69208;47.502;18.940;2023-06-14T04:31:49;97926.69;;;13.14;92.40
65756;BME280;69208;47.502;18.940;2023-06-14T04:32:55;97925.44;;;13.11;92.73
65756;BME280;69208;47.502;18.940;2023-06-14T04:33:58;97920.94;;;13.12;92.98
65756;BME280;69208;47.502;18.940;2023-06-14T04:35:01;97930.97;;;13.18;92.51
65756;BME280;69208;47.502;18.940;2023-06-14T04:36:04;97923.69;;;13.24;92.49
65756;BME280;69208;47.502;18.940;2023-06-14T04:37:07;97924.78;;;13.23;91.34
65756;BME280;69208;47.502;18.940;2023-06-14T04:38:12;97935.63;;;13.21;91.71
65756;BME280;69208;47.502;18.940;2023-06-14T04:39:16;97930.81;;;13.24;91.30
65756;BME280;69208;47.502;18.940;2023-06-14T04:40:20;97929.44;;;13.35;90.05
65756;BME280;69208;47.502;18.940;2023-06-14T04:41:22;97929.25;;;13.40;89.51
65756;BME280;69208;47.502;18.940;2023-06-14T04:42:31;97932.66;;;13.40;90.26
65756;BME280;69208;47.502;18.940;2023-06-14T04:43:35;97927.34;;;13.49;89.97
65756;BME280;69208;47.502;18.940;2023-06-14T04:44:42;97931.41;;;13.47;89.64
65756;BME280;69208;47.502;18.940;2023-06-14T04:45:45;97933.75;;;13.31;89.93
65756;BME280;69208;47.502;18.940;2023-06-14T04:46:49;97930.03;;;13.40;89.61
65756;BME280;69208;47.502;18.940;2023-06-14T04:47:52;97936.94;;;13.54;89.66
65756;BME280;69208;47.502;18.940;2023-06-14T04:48:58;97933.03;;;13.60;89.55
65756;BME280;69208;47.502;18.940;2023-06-14T04:50:05;97933.78;;;13.60;89.99
65756;BME280;69208;47.502;18.940;2023-06-14T04:51:11;97933.44;;;13.71;89.60
65756;BME280;69208;47.502;18.940;2023-06-14T04:52:13;97937.34;;;13.64;89.05
65756;BME280;69208;47.502;18.940;2023-06-14T04:53:16;97936.13;;;13.62;89.65
65756;BME280;69208;47.502;18.940;2023-06-14T04:54:19;97942.87;;;13.72;89.22
65756;BME280;69208;47.502;18.940;2023-06-14T04:55:22;97945.03;;;13.78;88.95
65756;BME280;69208;47.502;18.940;2023-06-14T04:56:25;97924.38;;;13.89;87.75
65756;BME280;69208;47.502;18.940;2023-06-14T04:57:28;97932.25;;;13.89;86.22
65756;BME280;69208;47.502;18.940;2023-06-14T04:58:31;97938.88;;;13.95;86.75
65756;BME280;69208;47.502;18.940;2023-06-14T04:59:34;97942.87;;;14.01;87.85
65756;BME280;69208;47.502;18.940;2023-06-14T05:00:38;97941.53;;;14.16;85.59
65756;BME280;69208;47.502;18.940;2023-06-14T05:01:41;97946.38;;;14.14;85.16
65756;BME280;69208;47.502;18.940;2023-06-14T05:02:43;97947.44;;;14.13;85.97
65756;BME280;69208;47.502;18.940;2023-06-14T05:03:47;97945.75;;;14.17;86.22
65756;BME280;69208;47.502;18.940;2023-06-14T05:04:52;97946.25;;;14.31;85.97
65756;BME280;69208;47.502;18.940;2023-06-14T05:05:55;97946.13;;;14.28;85.56
65756;BME280;69208;47.502;18.940;2023-06-14T05:06:58;97949.78;;;14.36;85.14
65756;BME280;69208;47.502;18.940;2023-06-14T05:08:01;97941.38;;;14.42;85.38
65756;BME280;69208;47.502;18.940;2023-06-14T05:09:04;97941.28;;;14.51;85.80
65756;BME280;69208;47.502;18.940;2023-06-14T05:10:07;97943.44;;;14.57;84.25
65756;BME280;69208;47.502;18.940;2023-06-14T05:11:10;97939.00;;;14.70;82.95
65756;BME280;69208;47.502;18.940;2023-06-14T05:12:12;97942.28;;;14.67;83.00
65756;BME280;69208;47.502;18.940;2023-06-14T05:13:15;97944.59;;;14.69;83.85
65756;BME280;69208;47.502;18.940;2023-06-14T05:14:18;97943.28;;;14.75;84.87
65756;BME280;69208;47.502;18.940;2023-06-14T05:15:21;97947.72;;;14.83;85.15
65756;BME280;69208;47.502;18.940;2023-06-14T05:16:28;97946.88;;;14.91;85.73
65756;BME280;69208;47.502;18.940;2023-06-14T05:17:31;97949.44;;;15.00;85.45
65756;BME280;69208;47.502;18.940;2023-06-14T05:18:34;97947.59;;;15.13;84.73
65756;BME280;69208;47.502;18.940;2023-06-14T05:19:37;97948.91;;;15.19;82.56
65756;BME280;69208;47.502;18.940;2023-06-14T05:20:41;97948.72;;;15.24;81.33
65756;BME280;69208;47.502;18.940;2023-06-14T05:21:44;97944.00;;;15.30;81.24
65756;BME280;69208;47.502;18.940;2023-06-14T05:22:47;97946.41;;;15.35;81.00
65756;BME280;69208;47.502;18.940;2023-06-14T05:23:51;97944.44;;;15.32;81.02
65756;BME280;69208;47.502;18.940;2023-06-14T05:24:53;97942.59;;;15.32;81.61
65756;BME280;69208;47.502;18.940;2023-06-14T05:25:56;97947.41;;;15.42;82.06
65756;BME280;69208;47.502;18.940;2023-06-14T05:26:59;97943.66;;;15.43;82.74
65756;BME280;69208;47.502;18.940;2023-06-14T05:28:02;97949.19;;;15.51;82.20
65756;BME280;69208;47.502;18.940;2023-06-14T05:29:05;97949.50;;;15.49;81.47
65756;BME280;69208;47.502;18.940;2023-06-14T05:30:08;97947.41;;;15.42;80.48
65756;BME280;69208;47.502;18.940;2023-06-14T05:31:11;97950.16;;;15.34;80.34
65756;BME280;69208;47.502;18.940;2023-06-14T05:32:14;97952.78;;;15.34;80.05
65756;BME280;69208;47.502;18.940;2023-06-14T05:33:17;97954.41;;;15.26;79.75
65756;BME280;69208;47.502;18.940;2023-06-14T05:34:20;97954.19;;;15.19;80.39
65756;BME280;69208;47.502;18.940;2023-06-14T05:35:23;97951.66;;;15.10;80.76
65756;BME280;69208;47.502;18.940;2023-06-14T05:36:25;97957.81;;;15.14;81.42
65756;BME280;69208;47.502;18.940;2023-06-14T05:37:30;97958.16;;;15.25;82.25
65756;BME280;69208;47.502;18.940;2023-06-14T05:38:33;97955.53;;;15.37;82.54